createdAt,value
2022-12-23T00:01:57.330Z,98631.16
2022-12-23T00:04:25.196Z,98623.16
2022-12-23T00:06:52.522Z,98620.78
2022-12-23T00:09:19.751Z,98624.41
2022-12-23T00:12:07.027Z,98632.66
2022-12-23T00:14:52.817Z,98624.19
2022-12-23T00:17:22.956Z,98621.56
2022-12-23T00:19:50.613Z,98616.31
2022-12-23T00:22:18.120Z,98617.13
2022-12-23T00:24:45.396Z,98622.72
2022-12-23T00:27:14.178Z,98626.75
2022-12-23T00:29:41.745Z,98626.94
2022-12-23T00:32:09.270Z,98622.81
2022-12-23T00:34:36.583Z,98615.28
2022-12-23T00:37:03.900Z,98631.41
2022-12-23T00:39:54.732Z,98615.94
2022-12-23T00:42:42.503Z,98629.59
2022-12-23T00:45:16.291Z,98620.78
2022-12-23T00:48:03.277Z,98625.09
2022-12-23T00:50:31.182Z,98608.72
2022-12-23T00:52:58.829Z,98611.00
2022-12-23T00:55:26.110Z,98613.19
2022-12-23T00:57:55.357Z,98604.03
2022-12-23T01:00:42.907Z,98606.78
2022-12-23T01:03:31.810Z,98593.59
2022-12-23T01:05:59.936Z,98598.91
2022-12-23T01:08:27.579Z,98593.97
2022-12-23T01:10:55.207Z,98595.47
2022-12-23T01:13:23.921Z,98590.88
2022-12-23T01:15:51.136Z,98602.09
2022-12-23T01:18:18.415Z,98593.16
2022-12-23T01:20:45.758Z,98594.28
2022-12-23T01:23:13.184Z,98585.28
2022-12-23T01:25:40.491Z,98581.00
2022-12-23T01:28:07.981Z,98569.81
2022-12-23T01:30:37.546Z,98586.03
2022-12-23T01:33:04.989Z,98590.78
2022-12-23T01:35:32.141Z,98584.47
2022-12-23T01:37:59.389Z,98587.69
2022-12-23T01:40:26.745Z,98591.59
2022-12-23T01:42:53.975Z,98592.50
2022-12-23T01:45:27.879Z,98587.00
2022-12-23T01:47:59.135Z,98591.59
2022-12-23T01:50:32.226Z,98581.50
2022-12-23T01:53:07.807Z,98590.53
2022-12-23T01:55:39.041Z,98582.31
2022-12-23T01:58:12.438Z,98580.59
2022-12-23T02:01:00.834Z,98576.13
2022-12-23T02:03:44.806Z,98579.91
2022-12-23T02:06:38.775Z,98556.97
2022-12-23T02:09:20.071Z,98578.53
2022-12-23T02:12:15.014Z,98588.41
2022-12-23T02:15:22.795Z,98581.97
2022-12-23T02:18:01.878Z,98587.94
2022-12-23T02:21:05.242Z,98568.91
2022-12-23T02:24:05.647Z,98549.91
2022-12-23T02:27:11.550Z,98545.22
2022-12-23T02:30:22.519Z,98563.53
2022-12-23T02:33:03.731Z,98529.06
2022-12-23T02:35:38.124Z,98561.13
2022-12-23T02:38:12.009Z,98559.06
2022-12-23T02:40:44.813Z,98527.44
2022-12-23T02:43:19.626Z,98551.97
2022-12-23T02:45:54.066Z,98546.03
2022-12-23T02:48:27.737Z,98544.69
2022-12-23T02:50:58.002Z,98549.00
2022-12-23T02:53:29.703Z,98518.34
2022-12-23T02:55:59.386Z,98555.22
2022-12-23T02:58:31.669Z,98508.63
2022-12-23T03:01:02.327Z,98530.50
2022-12-23T03:03:29.772Z,98544.56
2022-12-23T03:05:57.453Z,98544.22
2022-12-23T03:08:27.332Z,98553.38
2022-12-23T03:11:06.453Z,98558.06
2022-12-23T03:14:01.889Z,98557.72
2022-12-23T03:16:38.879Z,98555.56
2022-12-23T03:19:16.240Z,98570.09
2022-12-23T03:21:48.326Z,98552.38
2022-12-23T03:24:24.677Z,98557.72
2022-12-23T03:26:57.818Z,98561.84
2022-12-23T03:29:29.453Z,98577.63
2022-12-23T03:32:01.689Z,98566.19
2022-12-23T03:34:32.886Z,98543.16
2022-12-23T03:37:05.654Z,98559.78
2022-12-23T03:39:37.225Z,98553.25
2022-12-23T03:42:09.458Z,98561.25
2022-12-23T03:44:51.761Z,98565.63
2022-12-23T03:47:36.398Z,98547.44
2022-12-23T03:50:08.626Z,98561.84
2022-12-23T03:52:40.297Z,98558.19
2022-12-23T03:55:12.268Z,98562.63
2022-12-23T03:57:44.949Z,98563.69
2022-12-23T04:00:12.842Z,98571.22
2022-12-23T04:02:52.177Z,98559.66
2022-12-23T04:05:25.321Z,98555.09
2022-12-23T04:07:59.141Z,98563.31
2022-12-23T04:10:27.785Z,98561.34
2022-12-23T04:12:55.720Z,98576.13
2022-12-23T04:15:24.836Z,98565.28
2022-12-23T04:17:55.694Z,98572.69
2022-12-23T04:20:23.555Z,98557.28
2022-12-23T04:22:50.868Z,98557.16
2022-12-23T04:25:18.504Z,98567.56
2022-12-23T04:27:45.773Z,98555.09
2022-12-23T04:30:14.136Z,98556.34
2022-12-23T04:32:42.033Z,98548.72
2022-12-23T04:35:11.707Z,98563.25
2022-12-23T04:37:39.562Z,98559.44
2022-12-23T04:40:07.881Z,98563.00
2022-12-23T04:42:35.193Z,98551.44
2022-12-23T04:45:02.449Z,98565.03
2022-12-23T04:47:31.459Z,98571.09
2022-12-23T04:49:58.838Z,98566.06
2022-12-23T04:52:27.807Z,98566.66
2022-12-23T04:54:55.267Z,98572.50
2022-12-23T04:57:22.570Z,98556.81
2022-12-23T04:59:50.005Z,98554.53
2022-12-23T05:02:17.620Z,98546.72
2022-12-23T05:04:44.844Z,98556.25
2022-12-23T05:07:12.270Z,98552.84
2022-12-23T05:09:40.994Z,98550.66
2022-12-23T05:12:08.391Z,98538.28
2022-12-23T05:14:39.719Z,98547.44
2022-12-23T05:17:07.946Z,98549.94
2022-12-23T05:19:36.039Z,98545.81
2022-12-23T05:22:03.482Z,98539.31
2022-12-23T05:24:30.797Z,98545.16
2022-12-23T05:27:00.547Z,98540.91
2022-12-23T05:29:28.089Z,98545.94
2022-12-23T05:31:55.602Z,98539.19
2022-12-23T05:34:23.027Z,98547.06
2022-12-23T05:36:50.294Z,98544.56
2022-12-23T05:39:17.725Z,98545.94
2022-12-23T05:41:46.012Z,98530.53
2022-12-23T05:44:14.876Z,98542.41
2022-12-23T05:46:42.158Z,98529.72
2022-12-23T05:49:09.499Z,98525.13
2022-12-23T05:51:36.979Z,98526.84
2022-12-23T05:54:04.477Z,98527.75
2022-12-23T05:56:31.804Z,98520.19
2022-12-23T05:58:59.417Z,98525.13
2022-12-23T06:01:28.305Z,98532.34
2022-12-23T06:03:55.811Z,98521.56
2022-12-23T06:06:23.188Z,98515.31
2022-12-23T06:08:55.778Z,98524.09
2022-12-23T06:11:26.673Z,98516.34
2022-12-23T06:13:54.311Z,98517.94
2022-12-23T06:16:21.781Z,98519.53
2022-12-23T06:18:55.059Z,98515.75
2022-12-23T06:21:22.844Z,98511.06
2022-12-23T06:23:50.239Z,98503.97
2022-12-23T06:26:17.547Z,98515.28
2022-12-23T06:28:45.105Z,98517.16
2022-12-23T06:31:12.487Z,98522.97
2022-12-23T06:33:39.910Z,98523.88
2022-12-23T06:36:09.728Z,98518.97
2022-12-23T06:38:37.069Z,98511.75
2022-12-23T06:41:04.754Z,98511.50
2022-12-23T06:43:35.579Z,98525.25
2022-12-23T06:46:03.053Z,98524.34
2022-12-23T06:48:30.432Z,98516.09
2022-12-23T06:50:57.904Z,98515.66
2022-12-23T06:53:26.627Z,98514.28
2022-12-23T06:56:00.100Z,98526.41
2022-12-23T06:58:27.341Z,98528.47
2022-12-23T07:00:54.667Z,98518.63
2022-12-23T07:03:22.278Z,98514.28
2022-12-23T07:05:50.465Z,98515.66
2022-12-23T07:08:18.033Z,98519.44
2022-12-23T07:10:47.400Z,98523.91
2022-12-23T07:13:14.693Z,98509.81
2022-12-23T07:15:42.160Z,98508.81
2022-12-23T07:18:09.724Z,98514.63
2022-12-23T07:20:40.058Z,98509.47
2022-12-23T07:23:07.969Z,98508.00
2022-12-23T07:25:35.347Z,98515.41
2022-12-23T07:28:04.452Z,98514.41
2022-12-23T07:30:31.708Z,98509.38
2022-12-23T07:32:59.398Z,98503.78
2022-12-23T07:35:26.753Z,98507.53
2022-12-23T07:37:55.655Z,98505.81
2022-12-23T07:40:26.594Z,98492.53
2022-12-23T07:42:55.859Z,98482.16
2022-12-23T07:45:24.560Z,98494.28
2022-12-23T07:47:53.703Z,98484.88
2022-12-23T07:50:20.993Z,98486.13
2022-12-23T07:52:48.289Z,98479.50
2022-12-23T07:55:15.952Z,98475.72
2022-12-23T07:57:43.517Z,98471.94
2022-12-23T08:00:12.678Z,98483.75
2022-12-23T08:02:41.975Z,98486.72
2022-12-23T08:05:10.141Z,98484.53
2022-12-23T08:07:37.666Z,98495.06
2022-12-23T08:10:05.495Z,98481.00
2022-12-23T08:12:33.395Z,98482.72
2022-12-23T08:15:00.860Z,98482.47
2022-12-23T08:17:28.964Z,98467.25
2022-12-23T08:19:57.863Z,98484.53
2022-12-23T08:22:25.446Z,98484.53
2022-12-23T08:24:53.342Z,98483.63
2022-12-23T08:27:20.591Z,98478.59
2022-12-23T08:29:47.877Z,98482.47
2022-12-23T08:32:15.228Z,98464.75
2022-12-23T08:34:42.586Z,98468.06
2022-12-23T08:37:11.548Z,98482.25
2022-12-23T08:39:38.857Z,98468.16
2022-12-23T08:42:06.199Z,98469.13
2022-12-23T08:44:33.488Z,98467.25
2022-12-23T08:47:00.896Z,98461.78
2022-12-23T08:49:28.310Z,98466.25
2022-12-23T08:51:55.625Z,98458.91
2022-12-23T08:54:25.288Z,98452.41
2022-12-23T08:56:52.623Z,98457.66
2022-12-23T08:59:20.170Z,98454.56
2022-12-23T09:01:48.175Z,98455.13
2022-12-23T09:04:16.075Z,98445.88
2022-12-23T09:06:44.178Z,98455.47
2022-12-23T09:09:14.695Z,98433.28
2022-12-23T09:11:43.816Z,98449.66
2022-12-23T09:14:12.225Z,98435.09
2022-12-23T09:16:40.483Z,98453.88
2022-12-23T09:19:08.142Z,98449.75
2022-12-23T09:21:36.831Z,98407.44
2022-12-23T09:24:04.923Z,98436.72
2022-12-23T09:26:32.561Z,98419.44
2022-12-23T09:29:01.496Z,98432.38
2022-12-23T09:31:36.096Z,98430.78
2022-12-23T09:34:05.564Z,98430.41
2022-12-23T09:36:32.840Z,98426.06
2022-12-23T09:39:00.134Z,98418.41
2022-12-23T09:41:40.700Z,98420.25
2022-12-23T09:44:26.777Z,98424.38
2022-12-23T09:46:57.205Z,98407.75
2022-12-23T09:49:24.598Z,98420.00
2022-12-23T09:51:55.918Z,98388.44
2022-12-23T09:54:25.359Z,98405.47
2022-12-23T09:56:55.161Z,98423.91
2022-12-23T09:59:37.705Z,98386.59
2022-12-23T10:02:21.964Z,98382.94
2022-12-23T10:05:00.388Z,98382.03
2022-12-23T10:07:33.222Z,98363.84
2022-12-23T10:10:07.553Z,98381.31
2022-12-23T10:12:40.228Z,98326.72
2022-12-23T10:15:21.720Z,98367.81
2022-12-23T10:17:53.128Z,98366.38
2022-12-23T10:20:36.452Z,98343.72
2022-12-23T10:23:08.973Z,98339.88
2022-12-23T10:25:41.441Z,98338.88
2022-12-23T10:28:10.137Z,98332.91
2022-12-23T10:31:05.772Z,98331.06
2022-12-23T10:33:43.696Z,98330.25
2022-12-23T10:36:18.233Z,98336.00
2022-12-23T10:38:53.884Z,98322.59
2022-12-23T10:41:32.254Z,98323.88
2022-12-23T10:44:25.421Z,98321.78
2022-12-23T10:47:07.270Z,98326.84
2022-12-23T10:49:46.704Z,98322.50
2022-12-23T10:52:19.576Z,98319.06
2022-12-23T10:54:48.452Z,98330.03
2022-12-23T10:57:17.703Z,98335.28
2022-12-23T10:59:45.933Z,98339.06
2022-12-23T11:02:49.476Z,98323.66
2022-12-23T11:05:22.632Z,98326.00
2022-12-23T11:07:49.931Z,98329.97
2022-12-23T11:10:19.613Z,98331.72
2022-12-23T11:12:48.989Z,98321.06
2022-12-23T11:15:28.430Z,98318.78
2022-12-23T11:18:02.396Z,98329.31
2022-12-23T11:20:30.521Z,98289.25
2022-12-23T11:23:01.855Z,98320.41
2022-12-23T11:25:32.984Z,98320.16
2022-12-23T11:28:04.094Z,98318.81
2022-12-23T11:30:33.190Z,98322.25
2022-12-23T11:33:01.869Z,98322.25
2022-12-23T11:35:31.935Z,98313.06
2022-12-23T11:38:02.023Z,98308.66
2022-12-23T11:40:32.183Z,98327.81
2022-12-23T11:43:02.148Z,98314.69
2022-12-23T11:45:32.218Z,98330.59
2022-12-23T11:47:59.528Z,98338.16
2022-12-23T11:50:35.023Z,98343.28
2022-12-23T11:53:11.759Z,98342.75
2022-12-23T11:55:46.657Z,98328.78
2022-12-23T11:58:21.529Z,98337.00
2022-12-23T12:00:56.003Z,98329.25
2022-12-23T12:03:27.753Z,98322.59
2022-12-23T12:05:59.272Z,98299.53
2022-12-23T12:08:34.343Z,98318.13
2022-12-23T12:11:06.075Z,98321.31
2022-12-23T12:13:38.425Z,98324.13
2022-12-23T12:16:22.762Z,98324.31
2022-12-23T12:18:55.755Z,98271.81
2022-12-23T12:21:29.480Z,98310.25
2022-12-23T12:24:20.040Z,98308.88
2022-12-23T12:26:51.413Z,98302.13
2022-12-23T12:29:25.531Z,98301.56
2022-12-23T12:31:55.315Z,98315.50
2022-12-23T12:34:34.092Z,98305.59
2022-12-23T12:37:13.211Z,98271.75
2022-12-23T12:39:43.493Z,98298.72
2022-12-23T12:42:16.000Z,98304.47
2022-12-23T12:44:52.632Z,98291.03
2022-12-23T12:50:18.397Z,98301.22
2022-12-23T12:52:47.308Z,98293.91
2022-12-23T12:55:21.426Z,98298.59
2022-12-23T12:57:48.867Z,98297.69
2022-12-23T13:00:18.768Z,98290.78
2022-12-23T13:03:21.206Z,98287.34
2022-12-23T13:06:00.143Z,98289.97
2022-12-23T13:08:55.564Z,98279.69
2022-12-23T13:11:32.931Z,98283.56
2022-12-23T13:14:08.292Z,98278.78
2022-12-23T13:16:46.923Z,98273.97
2022-12-23T13:19:23.621Z,98272.13
2022-12-23T13:21:56.173Z,98279.69
2022-12-23T13:24:31.080Z,98288.59
2022-12-23T13:27:07.758Z,98269.63
2022-12-23T13:29:57.983Z,98272.94
2022-12-23T13:32:54.190Z,98259.34
2022-12-23T13:35:34.774Z,98262.72
2022-12-23T13:38:15.283Z,98271.16
2022-12-23T13:40:49.276Z,98276.44
2022-12-23T13:43:20.575Z,98254.56
2022-12-23T13:45:50.685Z,98274.94
2022-12-23T13:48:33.926Z,98243.09
2022-12-23T13:51:10.373Z,98252.47
2022-12-23T13:53:50.634Z,98270.59
2022-12-23T13:56:27.351Z,98259.28
2022-12-23T13:59:09.292Z,98238.53
2022-12-23T14:01:55.562Z,98231.72
2022-12-23T14:04:32.254Z,98255.69
2022-12-23T14:07:20.168Z,98266.19
2022-12-23T14:09:56.070Z,98261.00
2022-12-23T14:12:37.580Z,98239.63
2022-12-23T14:15:28.273Z,98267.28
2022-12-23T14:18:09.730Z,98249.22
2022-12-23T14:20:47.954Z,98238.06
2022-12-23T14:23:28.767Z,98260.63
2022-12-23T14:26:19.321Z,98260.41
2022-12-23T14:29:04.085Z,98269.44
2022-12-23T14:31:37.500Z,98243.06
2022-12-23T14:34:07.750Z,98251.91
2022-12-23T14:36:35.338Z,98250.50
2022-12-23T14:39:37.870Z,98257.03
2022-12-23T14:42:07.594Z,98246.41
2022-12-23T14:44:48.975Z,98246.66
2022-12-23T14:47:40.388Z,98235.34
2022-12-23T14:50:38.461Z,98233.31
2022-12-23T14:53:21.142Z,98244.28
2022-12-23T14:55:51.197Z,98230.78
2022-12-23T14:59:03.418Z,98230.78
2022-12-23T15:01:36.996Z,98226.06
2022-12-23T15:04:16.087Z,98229.88
2022-12-23T15:06:46.582Z,98217.84
2022-12-23T15:09:25.311Z,98239.84
2022-12-23T15:11:54.754Z,98223.50
2022-12-23T15:14:31.627Z,98224.53
2022-12-23T15:17:14.033Z,98215.25
2022-12-23T15:19:47.355Z,98212.00
2022-12-23T15:22:23.829Z,98221.47
2022-12-23T15:24:55.925Z,98213.47
2022-12-23T15:27:28.707Z,98230.13
2022-12-23T15:29:57.965Z,98224.28
2022-12-23T15:32:28.835Z,98215.63
2022-12-23T15:35:01.725Z,98203.84
2022-12-23T15:37:32.506Z,98207.69
2022-12-23T15:40:12.139Z,98231.84
2022-12-23T15:42:47.613Z,98201.22
2022-12-23T15:45:33.053Z,98128.47
2022-12-23T15:48:05.122Z,98215.84
2022-12-23T15:50:41.608Z,98213.84
2022-12-23T15:53:10.816Z,98164.09
2022-12-23T15:55:41.439Z,98209.19
2022-12-23T15:58:18.490Z,98193.72
2022-12-23T16:00:53.164Z,98144.66
2022-12-23T16:03:28.113Z,98194.56
2022-12-23T16:06:06.202Z,98187.06
2022-12-23T16:08:34.131Z,98191.38
2022-12-23T16:11:12.175Z,98227.25
2022-12-23T16:13:44.920Z,98224.84
2022-12-23T16:16:31.355Z,98201.22
2022-12-23T16:19:00.792Z,98217.22
2022-12-23T16:21:31.281Z,98203.53
2022-12-23T16:23:59.908Z,98200.22
2022-12-23T16:26:27.401Z,98198.38
2022-12-23T16:28:58.359Z,98113.31
2022-12-23T16:31:25.945Z,98197.75
2022-12-23T16:33:55.779Z,98204.28
2022-12-23T16:36:35.023Z,98213.28
2022-12-23T16:39:17.208Z,98191.91
2022-12-23T16:41:44.496Z,98195.78
2022-12-23T16:44:11.696Z,98197.13
2022-12-23T16:46:43.005Z,98186.03
2022-12-23T16:49:15.068Z,98167.75
2022-12-23T16:51:44.046Z,98189.03
2022-12-23T16:54:15.445Z,98189.97
2022-12-23T16:56:43.225Z,98197.38
2022-12-23T16:59:10.776Z,98195.53
2022-12-23T17:01:42.287Z,98192.34
2022-12-23T17:04:09.638Z,98199.28
2022-12-23T17:06:37.908Z,98190.25
2022-12-23T17:09:08.175Z,98181.28
2022-12-23T17:11:38.620Z,98195.63
2022-12-23T17:14:15.248Z,98200.63
2022-12-23T17:16:43.361Z,98193.88
2022-12-23T17:19:11.502Z,98208.88
2022-12-23T17:21:39.893Z,98159.16
2022-12-23T17:24:13.078Z,98165.56
2022-12-23T17:26:40.608Z,98208.28
2022-12-23T17:29:09.963Z,98201.81
2022-12-23T17:31:37.458Z,98204.06
2022-12-23T17:34:04.683Z,98177.22
2022-12-23T17:36:31.969Z,98199.16
2022-12-23T17:38:59.154Z,98203.69
2022-12-23T17:41:31.260Z,98180.97
2022-12-23T17:43:59.393Z,98193.19
2022-12-23T17:46:27.267Z,98201.44
2022-12-23T17:48:54.693Z,98207.25
2022-12-23T17:51:23.252Z,98197.03
2022-12-23T17:53:57.377Z,98199.06
2022-12-23T17:56:29.123Z,98199.31
2022-12-23T17:58:56.477Z,98198.94
2022-12-23T18:01:26.219Z,98202.13
2022-12-23T18:03:53.969Z,98200.94
2022-12-23T18:06:22.835Z,98201.16
2022-12-23T18:08:50.519Z,98196.69
2022-12-23T18:11:47.749Z,98163.94
2022-12-23T18:14:32.919Z,98191.72
2022-12-23T18:17:09.487Z,98214.19
2022-12-23T18:19:36.944Z,98216.97
2022-12-23T18:22:04.483Z,98209.16
2022-12-23T18:24:31.883Z,98214.97
2022-12-23T18:27:00.839Z,98206.50
2022-12-23T18:29:31.420Z,98201.84
2022-12-23T18:31:58.805Z,98205.72
2022-12-23T18:34:26.421Z,98211.44
2022-12-23T18:36:55.745Z,98204.78
2022-12-23T18:39:23.617Z,98200.56
2022-12-23T18:41:51.027Z,98165.75
2022-12-23T18:44:23.539Z,98190.81
2022-12-23T18:46:51.174Z,98207.00
2022-12-23T18:49:19.406Z,98209.16
2022-12-23T18:51:47.850Z,98203.50
2022-12-23T18:54:42.179Z,98212.88
2022-12-23T18:57:28.278Z,98168.41
2022-12-23T18:59:57.681Z,98220.06
2022-12-23T19:02:25.049Z,98212.09
2022-12-23T19:04:54.684Z,98215.56
2022-12-23T19:07:22.039Z,98213.50
2022-12-23T19:09:49.466Z,98195.50
2022-12-23T19:12:16.986Z,98208.16
2022-12-23T19:14:44.196Z,98213.50
2022-12-23T19:17:12.853Z,98217.44
2022-12-23T19:19:40.178Z,98221.34
2022-12-23T19:22:07.513Z,98225.34
2022-12-23T19:24:34.867Z,98218.56
2022-12-23T19:27:02.172Z,98199.38
2022-12-23T19:29:39.064Z,98211.84
2022-12-23T19:32:06.408Z,98220.41
2022-12-23T19:34:35.257Z,98221.75
2022-12-23T19:37:02.597Z,98225.16
2022-12-23T19:39:30.180Z,98228.63
2022-12-23T19:41:57.433Z,98226.63
2022-12-23T19:44:24.634Z,98236.41
2022-12-23T19:46:52.086Z,98243.47
2022-12-23T19:49:20.321Z,98239.88
2022-12-23T19:51:49.645Z,98239.28
2022-12-23T19:54:21.443Z,98252.63
2022-12-23T19:57:14.408Z,98198.84
2022-12-23T19:59:43.959Z,98181.78
2022-12-23T20:02:14.429Z,98255.69
2022-12-23T20:04:42.620Z,98262.84
2022-12-23T20:07:11.492Z,98260.00
2022-12-23T20:09:39.234Z,98264.38
2022-12-23T20:12:06.872Z,98263.59
2022-12-23T20:14:37.157Z,98276.53
2022-12-23T20:17:04.494Z,98298.44
2022-12-23T20:19:31.897Z,98257.25
2022-12-23T20:21:59.567Z,98264.72
2022-12-23T20:24:28.555Z,98255.91
2022-12-23T20:26:56.092Z,98265.44
2022-12-23T20:29:23.618Z,98277.28
2022-12-23T20:31:51.149Z,98279.56
2022-12-23T20:34:19.059Z,98281.41
2022-12-23T20:37:07.548Z,98292.28
2022-12-23T20:39:39.700Z,98250.69
2022-12-23T20:42:07.059Z,98282.06
2022-12-23T20:44:36.639Z,98275.94
2022-12-23T20:47:04.984Z,98289.34
2022-12-23T20:49:32.560Z,98295.72
2022-12-23T20:52:00.120Z,98286.94
2022-12-23T20:54:32.599Z,98265.75
2022-12-23T20:57:02.957Z,98326.97
2022-12-23T20:59:30.303Z,98294.19
2022-12-23T21:01:59.481Z,98296.47
2022-12-23T21:04:27.531Z,98275.66
2022-12-23T21:06:55.004Z,98295.47
2022-12-23T21:09:22.270Z,98293.72
2022-12-23T21:11:49.640Z,98305.19
2022-12-23T21:14:18.279Z,98301.00
2022-12-23T21:16:45.815Z,98295.44
2022-12-23T21:19:19.638Z,98299.09
2022-12-23T21:21:47.802Z,98318.66
2022-12-23T21:24:17.872Z,98316.13
2022-12-23T21:26:55.584Z,98321.97
2022-12-23T21:29:26.593Z,98325.53
2022-12-23T21:31:55.297Z,98335.97
2022-12-23T21:34:22.995Z,98303.91
2022-12-23T21:36:50.283Z,98336.56
2022-12-23T21:39:17.628Z,98335.75
2022-12-23T21:41:46.072Z,98339.50
2022-12-23T21:44:16.494Z,98338.69
2022-12-23T21:46:45.322Z,98340.28
2022-12-23T21:49:13.036Z,98337.09
2022-12-23T21:51:41.569Z,98340.28
2022-12-23T21:54:10.284Z,98339.25
2022-12-23T21:56:37.985Z,98341.88
2022-12-23T21:59:13.753Z,98337.91
2022-12-23T22:01:42.166Z,98347.19
2022-12-23T22:04:11.089Z,98348.34
2022-12-23T22:06:40.391Z,98353.81
2022-12-23T22:09:08.560Z,98351.03
2022-12-23T22:11:37.071Z,98335.97
2022-12-23T22:14:06.542Z,98358.84
2022-12-23T22:16:35.263Z,98359.88
2022-12-23T22:19:04.273Z,98359.09
2022-12-23T22:21:33.850Z,98366.66
2022-12-23T22:24:02.359Z,98357.47
2022-12-23T22:26:32.428Z,98378.50
2022-12-23T22:29:01.425Z,98359.72
2022-12-23T22:31:32.969Z,98366.78
2022-12-23T22:34:00.695Z,98373.41
2022-12-23T22:36:29.322Z,98371.94
2022-12-23T22:38:59.315Z,98384.25
2022-12-23T22:41:30.587Z,98382.91
2022-12-23T22:43:59.063Z,98382.81
2022-12-23T22:46:26.934Z,98392.16
2022-12-23T22:48:54.518Z,98379.19
2022-12-23T22:51:23.754Z,98384.06
2022-12-23T22:53:51.073Z,98392.44
2022-12-23T22:56:21.391Z,98405.56
2022-12-23T22:58:49.830Z,98382.13
2022-12-23T23:01:23.016Z,98390.75
2022-12-23T23:03:57.085Z,98397.31
2022-12-23T23:06:25.883Z,98401.94
2022-12-23T23:08:53.493Z,98403.09
2022-12-23T23:11:22.694Z,98401.56
2022-12-23T23:13:50.024Z,98413.63
2022-12-23T23:16:17.562Z,98415.66
2022-12-23T23:18:47.384Z,98425.31
2022-12-23T23:21:15.406Z,98428.91
2022-12-23T23:23:42.817Z,98434.69
2022-12-23T23:26:10.687Z,98414.66
2022-12-23T23:28:40.003Z,98413.13
2022-12-23T23:33:57.910Z,98428.19
2022-12-23T23:36:25.528Z,98435.28
2022-12-23T23:38:53.094Z,98431.81
2022-12-23T23:41:23.268Z,98433.44
2022-12-23T23:43:52.885Z,98443.66
2022-12-23T23:46:20.352Z,98431.50
2022-12-23T23:48:48.060Z,98439.53
2022-12-23T23:51:15.588Z,98439.28
2022-12-23T23:53:43.147Z,98436.34
2022-12-23T23:56:10.794Z,98434.25
2022-12-23T23:58:38.366Z,98437.81
